sensor_id;sensor_type;location;lat;lon;timestamp;temperature;humidity
50556;DHT22;36508;52.512;13.450;2022-07-23T00:00:00;20.10;99.90
50556;DHT22;36508;52.512;13.450;2022-07-23T00:02:25;20.10;99.90
50556;DHT22;36508;52.512;13.450;2022-07-23T00:04:51;20.00;99.90
50556;DHT22;36508;52.512;13.450;2022-07-23T00:07:17;20.00;99.90
50556;DHT22;36508;52.512;13.450;2022-07-23T00:09:43;20.00;99.90
50556;DHT22;36508;52.512;13.450;2022-07-23T00:12:09;20.00;99.90
50556;DHT22;36508;52.512;13.450;2022-07-23T00:14:34;19.90;99.90
50556;DHT22;36508;52.512;13.450;2022-07-23T00:17:00;19.90;99.90
50556;DHT22;36508;52.512;13.450;2022-07-23T00:19:26;19.90;99.90
50556;DHT22;36508;52.512;13.450;2022-07-23T00:21:52;19.90;99.90
50556;DHT22;36508;52.512;13.450;2022-07-23T00:24:17;19.90;99.90
50556;DHT22;36508;52.512;13.450;2022-07-23T00:26:43;20.00;99.90
50556;DHT22;36508;52.512;13.450;2022-07-23T00:29:09;20.00;99.90
50556;DHT22;36508;52.512;13.450;2022-07-23T00:31:35;19.90;99.90
50556;DHT22;36508;52.512;13.450;2022-07-23T00:34:01;19.90;99.90
50556;DHT22;36508;52.512;13.450;2022-07-23T00:36:27;19.90;99.90
50556;DHT22;36508;52.512;13.450;2022-07-23T00:38:54;19.90;99.90
50556;DHT22;36508;52.512;13.450;2022-07-23T00:41:19;19.80;99.90
50556;DHT22;36508;52.512;13.450;2022-07-23T00:43:45;19.80;99.90
50556;DHT22;36508;52.512;13.450;2022-07-23T00:46:11;19.90;99.90
50556;DHT22;36508;52.512;13.450;2022-07-23T00:48:37;19.90;99.90
50556;DHT22;36508;52.512;13.450;2022-07-23T00:51:04;19.90;99.90
50556;DHT22;36508;52.512;13.450;2022-07-23T00:53:30;19.80;99.90
50556;DHT22;36508;52.512;13.450;2022-07-23T00:55:57;19.80;99.90
50556;DHT22;36508;52.512;13.450;2022-07-23T00:58:24;19.80;99.90
50556;DHT22;36508;52.512;13.450;2022-07-23T01:00:50;19.70;99.90
50556;DHT22;36508;52.512;13.450;2022-07-23T01:03:16;19.70;99.90
50556;DHT22;36508;52.512;13.450;2022-07-23T01:05:42;19.60;99.90
50556;DHT22;36508;52.512;13.450;2022-07-23T01:08:08;19.60;99.90
50556;DHT22;36508;52.512;13.450;2022-07-23T01:10:34;19.70;99.90
50556;DHT22;36508;52.512;13.450;2022-07-23T01:13:06;19.70;99.90
50556;DHT22;36508;52.512;13.450;2022-07-23T01:15:33;19.60;99.90
50556;DHT22;36508;52.512;13.450;2022-07-23T01:18:00;19.70;99.90
50556;DHT22;36508;52.512;13.450;2022-07-23T01:20:26;19.80;99.90
50556;DHT22;36508;52.512;13.450;2022-07-23T01:22:53;19.70;99.90
50556;DHT22;36508;52.512;13.450;2022-07-23T01:25:19;19.60;99.90
50556;DHT22;36508;52.512;13.450;2022-07-23T01:27:45;19.50;99.90
50556;DHT22;36508;52.512;13.450;2022-07-23T01:30:11;19.50;99.90
50556;DHT22;36508;52.512;13.450;2022-07-23T01:32:38;19.60;99.90
50556;DHT22;36508;52.512;13.450;2022-07-23T01:35:04;19.60;99.90
50556;DHT22;36508;52.512;13.450;2022-07-23T01:37:30;19.70;99.90
50556;DHT22;36508;52.512;13.450;2022-07-23T01:39:56;19.60;99.90
50556;DHT22;36508;52.512;13.450;2022-07-23T01:42:22;19.70;99.90
50556;DHT22;36508;52.512;13.450;2022-07-23T01:44:49;19.70;99.90
50556;DHT22;36508;52.512;13.450;2022-07-23T01:47:15;19.60;99.90
50556;DHT22;36508;52.512;13.450;2022-07-23T01:49:40;19.60;99.90
50556;DHT22;36508;52.512;13.450;2022-07-23T01:52:06;19.60;99.90
50556;DHT22;36508;52.512;13.450;2022-07-23T01:54:36;19.60;99.90
50556;DHT22;36508;52.512;13.450;2022-07-23T01:57:02;19.60;99.90
50556;DHT22;36508;52.512;13.450;2022-07-23T01:59:28;19.60;99.90
50556;DHT22;36508;52.512;13.450;2022-07-23T02:01:54;19.50;99.90
50556;DHT22;36508;52.512;13.450;2022-07-23T02:04:21;19.40;99.90
50556;DHT22;36508;52.512;13.450;2022-07-23T02:06:47;19.50;99.90
50556;DHT22;36508;52.512;13.450;2022-07-23T02:09:14;19.40;99.90
50556;DHT22;36508;52.512;13.450;2022-07-23T02:11:39;19.30;99.90
50556;DHT22;36508;52.512;13.450;2022-07-23T02:14:05;19.50;99.90
50556;DHT22;36508;52.512;13.450;2022-07-23T02:16:31;19.70;99.90
50556;DHT22;36508;52.512;13.450;2022-07-23T02:18:57;19.60;99.90
50556;DHT22;36508;52.512;13.450;2022-07-23T02:21:23;19.60;99.90
50556;DHT22;36508;52.512;13.450;2022-07-23T02:23:49;19.70;99.90
50556;DHT22;36508;52.512;13.450;2022-07-23T02:26:15;19.60;99.90
50556;DHT22;36508;52.512;13.450;2022-07-23T02:28:41;19.40;99.90
50556;DHT22;36508;52.512;13.450;2022-07-23T02:31:06;19.20;99.90
50556;DHT22;36508;52.512;13.450;2022-07-23T02:33:33;19.20;99.90
50556;DHT22;36508;52.512;13.450;2022-07-23T02:35:59;19.20;99.90
50556;DHT22;36508;52.512;13.450;2022-07-23T02:38:25;19.00;99.90
50556;DHT22;36508;52.512;13.450;2022-07-23T02:40:51;18.90;99.90
50556;DHT22;36508;52.512;13.450;2022-07-23T02:43:16;19.10;99.90
50556;DHT22;36508;52.512;13.450;2022-07-23T02:45:42;19.00;99.90
50556;DHT22;36508;52.512;13.450;2022-07-23T02:48:08;18.90;99.90
50556;DHT22;36508;52.512;13.450;2022-07-23T02:50:34;18.80;99.90
50556;DHT22;36508;52.512;13.450;2022-07-23T02:52:59;18.80;99.90
50556;DHT22;36508;52.512;13.450;2022-07-23T02:55:25;18.80;99.90
50556;DHT22;36508;52.512;13.450;2022-07-23T02:57:51;18.70;99.90
50556;DHT22;36508;52.512;13.450;2022-07-23T03:00:17;18.70;99.90
50556;DHT22;36508;52.512;13.450;2022-07-23T03:02:42;18.80;99.90
50556;DHT22;36508;52.512;13.450;2022-07-23T03:05:09;18.90;99.90
50556;DHT22;36508;52.512;13.450;2022-07-23T03:07:35;18.70;99.90
50556;DHT22;36508;52.512;13.450;2022-07-23T03:10:01;18.70;99.90
50556;DHT22;36508;52.512;13.450;2022-07-23T03:12:27;18.70;99.90
50556;DHT22;36508;52.512;13.450;2022-07-23T03:14:53;18.60;99.90
50556;DHT22;36508;52.512;13.450;2022-07-23T03:17:19;18.60;99.90
50556;DHT22;36508;52.512;13.450;2022-07-23T03:19:45;18.60;99.90
50556;DHT22;36508;52.512;13.450;2022-07-23T03:22:11;18.50;99.90
50556;DHT22;36508;52.512;13.450;2022-07-23T03:24:37;18.60;99.90
50556;DHT22;36508;52.512;13.450;2022-07-23T03:27:27;18.40;99.90
50556;DHT22;36508;52.512;13.450;2022-07-23T03:29:55;18.20;99.90
50556;DHT22;36508;52.512;13.450;2022-07-23T03:32:22;18.20;99.90
50556;DHT22;36508;52.512;13.450;2022-07-23T03:34:48;18.10;99.90
50556;DHT22;36508;52.512;13.450;2022-07-23T03:37:14;18.00;99.90
50556;DHT22;36508;52.512;13.450;2022-07-23T03:39:40;17.90;99.90
50556;DHT22;36508;52.512;13.450;2022-07-23T03:42:06;18.00;99.90
50556;DHT22;36508;52.512;13.450;2022-07-23T03:44:33;18.00;99.90
50556;DHT22;36508;52.512;13.450;2022-07-23T03:46:59;17.90;99.90
50556;DHT22;36508;52.512;13.450;2022-07-23T03:49:25;17.90;99.90
50556;DHT22;36508;52.512;13.450;2022-07-23T03:51:51;18.00;99.90
50556;DHT22;36508;52.512;13.450;2022-07-23T03:54:17;17.90;99.90
50556;DHT22;36508;52.512;13.450;2022-07-23T03:56:43;17.90;99.90
50556;DHT22;36508;52.512;13.450;2022-07-23T03:59:10;17.90;99.90
50556;DHT22;36508;52.512;13.450;2022-07-23T04:01:36;17.90;99.90
50556;DHT22;36508;52.512;13.450;2022-07-23T04:04:03;18.00;99.90
50556;DHT22;36508;52.512;13.450;2022-07-23T04:06:29;18.10;99.90
50556;DHT22;36508;52.512;13.450;2022-07-23T04:08:55;18.20;99.90
50556;DHT22;36508;52.512;13.450;2022-07-23T04:11:21;18.10;99.90
50556;DHT22;36508;52.512;13.450;2022-07-23T04:13:47;18.10;99.90
50556;DHT22;36508;52.512;13.450;2022-07-23T04:16:13;18.10;99.90
50556;DHT22;36508;52.512;13.450;2022-07-23T04:18:39;18.10;99.90
50556;DHT22;36508;52.512;13.450;2022-07-23T04:21:05;17.90;99.90
50556;DHT22;36508;52.512;13.450;2022-07-23T04:23:30;17.80;99.90
50556;DHT22;36508;52.512;13.450;2022-07-23T04:25:56;18.00;99.90
50556;DHT22;36508;52.512;13.450;2022-07-23T04:28:34;18.00;99.90
50556;DHT22;36508;52.512;13.450;2022-07-23T04:31:00;18.10;99.90
50556;DHT22;36508;52.512;13.450;2022-07-23T04:33:26;18.00;99.90
50556;DHT22;36508;52.512;13.450;2022-07-23T04:35:51;18.10;99.90
50556;DHT22;36508;52.512;13.450;2022-07-23T04:38:17;18.10;99.90
50556;DHT22;36508;52.512;13.450;2022-07-23T04:40:43;18.20;99.90
50556;DHT22;36508;52.512;13.450;2022-07-23T04:43:09;18.50;99.90
50556;DHT22;36508;52.512;13.450;2022-07-23T04:45:34;18.50;99.90
50556;DHT22;36508;52.512;13.450;2022-07-23T04:48:00;18.40;99.90
50556;DHT22;36508;52.512;13.450;2022-07-23T04:50:26;18.10;99.90
50556;DHT22;36508;52.512;13.450;2022-07-23T04:52:52;17.90;99.90
50556;DHT22;36508;52.512;13.450;2022-07-23T04:55:18;17.70;99.90
50556;DHT22;36508;52.512;13.450;2022-07-23T04:57:43;17.90;99.90
50556;DHT22;36508;52.512;13.450;2022-07-23T05:00:09;17.80;99.90
50556;DHT22;36508;52.512;13.450;2022-07-23T05:02:35;17.60;99.90
50556;DHT22;36508;52.512;13.450;2022-07-23T05:05:00;17.60;99.90
50556;DHT22;36508;52.512;13.450;2022-07-23T05:07:26;17.70;99.90
50556;DHT22;36508;52.512;13.450;2022-07-23T05:09:52;17.50;99.90
50556;DHT22;36508;52.512;13.450;2022-07-23T05:15:26;17.30;99.90
50556;DHT22;36508;52.512;13.450;2022-07-23T05:17:52;17.40;99.90
50556;DHT22;36508;52.512;13.450;2022-07-23T05:20:17;17.40;99.90
50556;DHT22;36508;52.512;13.450;2022-07-23T05:22:43;17.50;99.90
50556;DHT22;36508;52.512;13.450;2022-07-23T05:25:09;17.50;99.90
50556;DHT22;36508;52.512;13.450;2022-07-23T05:27:35;17.40;99.90
50556;DHT22;36508;52.512;13.450;2022-07-23T05:30:01;17.30;99.90
50556;DHT22;36508;52.512;13.450;2022-07-23T05:32:26;17.30;99.90
50556;DHT22;36508;52.512;13.450;2022-07-23T05:34:52;17.30;99.90
50556;DHT22;36508;52.512;13.450;2022-07-23T05:37:18;17.50;99.90
50556;DHT22;36508;52.512;13.450;2022-07-23T05:39:43;17.40;99.90
50556;DHT22;36508;52.512;13.450;2022-07-23T05:42:12;17.50;99.90
50556;DHT22;36508;52.512;13.450;2022-07-23T05:44:38;17.60;99.90
50556;DHT22;36508;52.512;13.450;2022-07-23T05:47:04;17.50;99.90
50556;DHT22;36508;52.512;13.450;2022-07-23T05:49:30;17.60;99.90
50556;DHT22;36508;52.512;13.450;2022-07-23T05:51:55;17.70;99.90
50556;DHT22;36508;52.512;13.450;2022-07-23T05:54:21;17.70;99.90
50556;DHT22;36508;52.512;13.450;2022-07-23T05:56:47;17.50;99.90
50556;DHT22;36508;52.512;13.450;2022-07-23T05:59:12;17.60;99.90
50556;DHT22;36508;52.512;13.450;2022-07-23T06:01:40;17.60;99.90
50556;DHT22;36508;52.512;13.450;2022-07-23T06:04:06;17.70;99.90
50556;DHT22;36508;52.512;13.450;2022-07-23T06:06:31;17.80;99.90
50556;DHT22;36508;52.512;13.450;2022-07-23T06:08:57;17.60;99.90
50556;DHT22;36508;52.512;13.450;2022-07-23T06:11:23;17.40;99.90
50556;DHT22;36508;52.512;13.450;2022-07-23T06:13:49;17.40;99.90
50556;DHT22;36508;52.512;13.450;2022-07-23T06:16:14;17.30;99.90
50556;DHT22;36508;52.512;13.450;2022-07-23T06:18:40;17.50;99.90
50556;DHT22;36508;52.512;13.450;2022-07-23T06:21:06;17.60;99.90
50556;DHT22;36508;52.512;13.450;2022-07-23T06:23:32;17.50;99.90
50556;DHT22;36508;52.512;13.450;2022-07-23T06:25:57;17.40;99.90
50556;DHT22;36508;52.512;13.450;2022-07-23T06:28:23;17.40;99.90
50556;DHT22;36508;52.512;13.450;2022-07-23T06:30:49;17.50;99.90
50556;DHT22;36508;52.512;13.450;2022-07-23T06:33:15;17.60;99.90
50556;DHT22;36508;52.512;13.450;2022-07-23T06:35:41;17.40;99.90
50556;DHT22;36508;52.512;13.450;2022-07-23T06:38:06;17.20;99.90
50556;DHT22;36508;52.512;13.450;2022-07-23T06:40:32;17.20;99.90
50556;DHT22;36508;52.512;13.450;2022-07-23T06:42:58;17.10;99.90
50556;DHT22;36508;52.512;13.450;2022-07-23T06:45:24;17.10;99.90
50556;DHT22;36508;52.512;13.450;2022-07-23T06:47:50;17.20;99.90
50556;DHT22;36508;52.512;13.450;2022-07-23T06:50:15;17.50;99.90
50556;DHT22;36508;52.512;13.450;2022-07-23T06:52:44;17.70;99.90
50556;DHT22;36508;52.512;13.450;2022-07-23T06:55:10;17.80;99.90
50556;DHT22;36508;52.512;13.450;2022-07-23T06:57:36;17.90;99.90
50556;DHT22;36508;52.512;13.450;2022-07-23T07:00:04;18.00;99.90
50556;DHT22;36508;52.512;13.450;2022-07-23T07:02:30;17.90;99.90
50556;DHT22;36508;52.512;13.450;2022-07-23T07:04:56;18.00;99.90
50556;DHT22;36508;52.512;13.450;2022-07-23T07:07:22;17.90;99.90
50556;DHT22;36508;52.512;13.450;2022-07-23T07:09:47;18.00;99.90
50556;DHT22;36508;52.512;13.450;2022-07-23T07:12:13;18.10;99.90
50556;DHT22;36508;52.512;13.450;2022-07-23T07:14:39;18.20;99.90
50556;DHT22;36508;52.512;13.450;2022-07-23T07:17:05;18.10;99.90
50556;DHT22;36508;52.512;13.450;2022-07-23T07:19:31;17.90;99.90
50556;DHT22;36508;52.512;13.450;2022-07-23T07:21:57;17.40;99.90
50556;DHT22;36508;52.512;13.450;2022-07-23T07:24:23;17.30;99.90
50556;DHT22;36508;52.512;13.450;2022-07-23T07:26:49;17.60;99.90
50556;DHT22;36508;52.512;13.450;2022-07-23T07:29:15;17.80;99.90
50556;DHT22;36508;52.512;13.450;2022-07-23T07:31:41;17.80;99.90
50556;DHT22;36508;52.512;13.450;2022-07-23T07:34:07;18.00;99.90
50556;DHT22;36508;52.512;13.450;2022-07-23T07:36:33;17.90;99.90
50556;DHT22;36508;52.512;13.450;2022-07-23T07:38:58;18.10;99.90
50556;DHT22;36508;52.512;13.450;2022-07-23T07:41:24;18.20;99.90
50556;DHT22;36508;52.512;13.450;2022-07-23T07:43:51;18.20;99.90
50556;DHT22;36508;52.512;13.450;2022-07-23T07:46:17;18.50;99.90
50556;DHT22;36508;52.512;13.450;2022-07-23T07:48:43;18.70;99.90
50556;DHT22;36508;52.512;13.450;2022-07-23T07:51:09;18.70;99.90
50556;DHT22;36508;52.512;13.450;2022-07-23T07:53:34;18.70;99.90
50556;DHT22;36508;52.512;13.450;2022-07-23T07:56:00;18.50;99.90
50556;DHT22;36508;52.512;13.450;2022-07-23T07:58:26;18.60;99.90
50556;DHT22;36508;52.512;13.450;2022-07-23T08:00:52;18.90;99.90
50556;DHT22;36508;52.512;13.450;2022-07-23T08:03:17;19.00;99.90
50556;DHT22;36508;52.512;13.450;2022-07-23T08:05:43;19.30;99.90
50556;DHT22;36508;52.512;13.450;2022-07-23T08:08:09;19.20;99.90
50556;DHT22;36508;52.512;13.450;2022-07-23T08:10:40;19.30;99.90
50556;DHT22;36508;52.512;13.450;2022-07-23T08:13:06;19.30;99.90
50556;DHT22;36508;52.512;13.450;2022-07-23T08:15:32;19.30;99.90
50556;DHT22;36508;52.512;13.450;2022-07-23T08:17:59;18.90;99.90
50556;DHT22;36508;52.512;13.450;2022-07-23T08:20:26;18.60;99.90
50556;DHT22;36508;52.512;13.450;2022-07-23T08:22:57;18.70;99.90
50556;DHT22;36508;52.512;13.450;2022-07-23T08:27:51;18.50;99.90
50556;DHT22;36508;52.512;13.450;2022-07-23T08:30:18;18.70;99.90
50556;DHT22;36508;52.512;13.450;2022-07-23T08:33:01;18.80;99.90
50556;DHT22;36508;52.512;13.450;2022-07-23T08:35:29;19.20;99.90
50556;DHT22;36508;52.512;13.450;2022-07-23T08:37:56;19.40;99.90
50556;DHT22;36508;52.512;13.450;2022-07-23T08:40:23;19.10;99.90
50556;DHT22;36508;52.512;13.450;2022-07-23T08:42:50;19.30;99.90
50556;DHT22;36508;52.512;13.450;2022-07-23T08:45:18;19.50;99.90
50556;DHT22;36508;52.512;13.450;2022-07-23T08:47:47;19.20;99.90
50556;DHT22;36508;52.512;13.450;2022-07-23T08:50:14;19.50;99.90
50556;DHT22;36508;52.512;13.450;2022-07-23T08:52:40;19.70;99.90
50556;DHT22;36508;52.512;13.450;2022-07-23T08:55:07;19.60;99.90
50556;DHT22;36508;52.512;13.450;2022-07-23T08:57:33;19.80;99.90
50556;DHT22;36508;52.512;13.450;2022-07-23T08:59:59;20.00;99.90
50556;DHT22;36508;52.512;13.450;2022-07-23T09:02:24;19.60;99.90
50556;DHT22;36508;52.512;13.450;2022-07-23T09:04:50;19.70;99.90
50556;DHT22;36508;52.512;13.450;2022-07-23T09:07:16;19.30;99.90
50556;DHT22;36508;52.512;13.450;2022-07-23T09:09:42;19.50;99.90
50556;DHT22;36508;52.512;13.450;2022-07-23T09:12:09;19.60;99.90
50556;DHT22;36508;52.512;13.450;2022-07-23T09:14:45;19.30;99.90
50556;DHT22;36508;52.512;13.450;2022-07-23T09:17:18;19.80;99.90
50556;DHT22;36508;52.512;13.450;2022-07-23T09:19:44;20.00;99.90
50556;DHT22;36508;52.512;13.450;2022-07-23T09:22:36;20.30;99.90
50556;DHT22;36508;52.512;13.450;2022-07-23T09:27:49;20.40;99.90
50556;DHT22;36508;52.512;13.450;2022-07-23T09:30:16;20.80;99.90
50556;DHT22;36508;52.512;13.450;2022-07-23T09:32:42;20.80;99.90
50556;DHT22;36508;52.512;13.450;2022-07-23T09:35:08;20.50;99.90
50556;DHT22;36508;52.512;13.450;2022-07-23T09:37:34;20.60;99.90
50556;DHT22;36508;52.512;13.450;2022-07-23T09:40:07;20.70;99.90
50556;DHT22;36508;52.512;13.450;2022-07-23T09:42:33;20.90;99.90
50556;DHT22;36508;52.512;13.450;2022-07-23T09:44:59;21.00;99.90
50556;DHT22;36508;52.512;13.450;2022-07-23T09:47:27;20.80;99.90
50556;DHT22;36508;52.512;13.450;2022-07-23T09:50:07;20.80;99.90
50556;DHT22;36508;52.512;13.450;2022-07-23T09:52:49;21.00;99.90
50556;DHT22;36508;52.512;13.450;2022-07-23T09:55:16;21.00;99.90
50556;DHT22;36508;52.512;13.450;2022-07-23T09:57:43;20.70;99.90
50556;DHT22;36508;52.512;13.450;2022-07-23T10:00:27;20.80;99.90
50556;DHT22;36508;52.512;13.450;2022-07-23T10:02:53;21.10;99.90
50556;DHT22;36508;52.512;13.450;2022-07-23T10:05:20;21.70;99.90
50556;DHT22;36508;52.512;13.450;2022-07-23T10:07:46;21.70;99.90
50556;DHT22;36508;52.512;13.450;2022-07-23T10:10:14;22.00;99.90
50556;DHT22;36508;52.512;13.450;2022-07-23T10:12:42;22.10;99.90
50556;DHT22;36508;52.512;13.450;2022-07-23T10:15:34;22.00;99.90
50556;DHT22;36508;52.512;13.450;2022-07-23T10:18:00;22.00;99.90
50556;DHT22;36508;52.512;13.450;2022-07-23T10:20:27;22.20;99.90
50556;DHT22;36508;52.512;13.450;2022-07-23T10:23:33;22.60;99.90
50556;DHT22;36508;52.512;13.450;2022-07-23T10:26:19;22.60;99.90
50556;DHT22;36508;52.512;13.450;2022-07-23T10:28:52;22.70;99.90
50556;DHT22;36508;52.512;13.450;2022-07-23T10:34:29;21.70;99.90
50556;DHT22;36508;52.512;13.450;2022-07-23T10:37:14;21.60;99.90
50556;DHT22;36508;52.512;13.450;2022-07-23T10:39:44;21.80;99.90
50556;DHT22;36508;52.512;13.450;2022-07-23T10:42:12;21.80;99.90
50556;DHT22;36508;52.512;13.450;2022-07-23T10:44:46;21.80;99.90
50556;DHT22;36508;52.512;13.450;2022-07-23T10:47:21;22.00;99.90
50556;DHT22;36508;52.512;13.450;2022-07-23T10:58:02;24.40;99.90
50556;DHT22;36508;52.512;13.450;2022-07-23T11:00:30;25.90;99.90
50556;DHT22;36508;52.512;13.450;2022-07-23T11:03:00;27.50;99.90
50556;DHT22;36508;52.512;13.450;2022-07-23T11:05:45;28.60;99.90
50556;DHT22;36508;52.512;13.450;2022-07-23T11:08:14;29.60;99.90
50556;DHT22;36508;52.512;13.450;2022-07-23T11:10:49;30.10;99.90
50556;DHT22;36508;52.512;13.450;2022-07-23T11:13:37;28.70;99.90
50556;DHT22;36508;52.512;13.450;2022-07-23T11:24:15;30.90;99.90
50556;DHT22;36508;52.512;13.450;2022-07-23T11:26:52;29.80;99.90
50556;DHT22;36508;52.512;13.450;2022-07-23T11:34:39;33.70;96.70
50556;DHT22;36508;52.512;13.450;2022-07-23T11:37:07;33.40;96.70
50556;DHT22;36508;52.512;13.450;2022-07-23T11:39:34;33.80;93.50
50556;DHT22;36508;52.512;13.450;2022-07-23T11:42:02;32.20;92.30
50556;DHT22;36508;52.512;13.450;2022-07-23T11:44:32;30.40;94.70
50556;DHT22;36508;52.512;13.450;2022-07-23T11:47:00;27.90;97.70
50556;DHT22;36508;52.512;13.450;2022-07-23T11:49:27;28.20;98.30
50556;DHT22;36508;52.512;13.450;2022-07-23T11:52:03;28.40;99.20
50556;DHT22;36508;52.512;13.450;2022-07-23T11:54:34;28.20;99.10
50556;DHT22;36508;52.512;13.450;2022-07-23T11:57:02;27.60;99.90
50556;DHT22;36508;52.512;13.450;2022-07-23T11:59:33;25.70;99.90
50556;DHT22;36508;52.512;13.450;2022-07-23T12:02:04;25.10;99.90
50556;DHT22;36508;52.512;13.450;2022-07-23T12:04:40;24.80;99.90
50556;DHT22;36508;52.512;13.450;2022-07-23T12:09:59;24.30;99.90
50556;DHT22;36508;52.512;13.450;2022-07-23T12:12:25;24.30;99.90
50556;DHT22;36508;52.512;13.450;2022-07-23T12:14:53;24.70;99.90
50556;DHT22;36508;52.512;13.450;2022-07-23T12:17:20;25.10;99.90
50556;DHT22;36508;52.512;13.450;2022-07-23T12:19:46;24.90;99.90
50556;DHT22;36508;52.512;13.450;2022-07-23T12:22:12;25.00;99.90
50556;DHT22;36508;52.512;13.450;2022-07-23T12:25:04;25.40;99.90
50556;DHT22;36508;52.512;13.450;2022-07-23T12:27:31;26.30;99.90
50556;DHT22;36508;52.512;13.450;2022-07-23T12:29:56;26.00;99.90
50556;DHT22;36508;52.512;13.450;2022-07-23T12:32:27;26.00;99.90
50556;DHT22;36508;52.512;13.450;2022-07-23T12:35:09;26.10;99.90
50556;DHT22;36508;52.512;13.450;2022-07-23T12:37:45;26.20;99.90
50556;DHT22;36508;52.512;13.450;2022-07-23T12:40:32;25.90;99.90
50556;DHT22;36508;52.512;13.450;2022-07-23T12:43:10;25.60;99.90
50556;DHT22;36508;52.512;13.450;2022-07-23T12:48:14;24.40;99.90
50556;DHT22;36508;52.512;13.450;2022-07-23T12:50:44;23.80;99.90
50556;DHT22;36508;52.512;13.450;2022-07-23T12:55:40;23.60;99.90
50556;DHT22;36508;52.512;13.450;2022-07-23T12:58:17;23.70;99.90
50556;DHT22;36508;52.512;13.450;2022-07-23T13:03:28;24.60;99.90
50556;DHT22;36508;52.512;13.450;2022-07-23T13:05:55;24.80;99.90
50556;DHT22;36508;52.512;13.450;2022-07-23T13:08:22;24.70;99.90
50556;DHT22;36508;52.512;13.450;2022-07-23T13:10:48;24.50;99.90
50556;DHT22;36508;52.512;13.450;2022-07-23T13:13:19;24.60;99.90
50556;DHT22;36508;52.512;13.450;2022-07-23T13:15:46;24.40;99.90
50556;DHT22;36508;52.512;13.450;2022-07-23T13:18:12;24.10;99.90
50556;DHT22;36508;52.512;13.450;2022-07-23T13:20:40;23.60;99.90
50556;DHT22;36508;52.512;13.450;2022-07-23T13:23:06;23.60;99.90
50556;DHT22;36508;52.512;13.450;2022-07-23T13:25:33;23.60;99.90
50556;DHT22;36508;52.512;13.450;2022-07-23T13:28:00;23.60;99.90
50556;DHT22;36508;52.512;13.450;2022-07-23T13:30:25;23.40;99.90
50556;DHT22;36508;52.512;13.450;2022-07-23T13:32:51;23.50;99.90
50556;DHT22;36508;52.512;13.450;2022-07-23T13:35:17;23.80;99.90
50556;DHT22;36508;52.512;13.450;2022-07-23T13:37:43;24.00;99.90
50556;DHT22;36508;52.512;13.450;2022-07-23T13:40:09;24.20;99.90
50556;DHT22;36508;52.512;13.450;2022-07-23T13:42:36;24.30;99.90
50556;DHT22;36508;52.512;13.450;2022-07-23T13:45:03;24.40;99.90
50556;DHT22;36508;52.512;13.450;2022-07-23T13:47:29;24.30;99.90
50556;DHT22;36508;52.512;13.450;2022-07-23T13:49:55;24.30;99.90
50556;DHT22;36508;52.512;13.450;2022-07-23T13:52:21;24.20;99.90
50556;DHT22;36508;52.512;13.450;2022-07-23T13:54:47;24.10;99.90
50556;DHT22;36508;52.512;13.450;2022-07-23T13:57:13;24.00;99.90
50556;DHT22;36508;52.512;13.450;2022-07-23T13:59:39;23.80;99.90
50556;DHT22;36508;52.512;13.450;2022-07-23T14:02:05;23.80;99.90
50556;DHT22;36508;52.512;13.450;2022-07-23T14:04:31;23.90;99.90
50556;DHT22;36508;52.512;13.450;2022-07-23T14:06:57;23.70;99.90
50556;DHT22;36508;52.512;13.450;2022-07-23T14:09:23;23.50;99.90
50556;DHT22;36508;52.512;13.450;2022-07-23T14:11:49;23.50;99.90
50556;DHT22;36508;52.512;13.450;2022-07-23T14:14:17;23.40;99.90
50556;DHT22;36508;52.512;13.450;2022-07-23T14:16:43;23.60;99.90
50556;DHT22;36508;52.512;13.450;2022-07-23T14:19:10;23.70;99.90
50556;DHT22;36508;52.512;13.450;2022-07-23T14:21:35;23.80;99.90
50556;DHT22;36508;52.512;13.450;2022-07-23T14:24:01;23.90;99.90
50556;DHT22;36508;52.512;13.450;2022-07-23T14:26:27;24.20;99.90
50556;DHT22;36508;52.512;13.450;2022-07-23T14:28:53;24.50;99.90
50556;DHT22;36508;52.512;13.450;2022-07-23T14:31:19;24.50;99.90
50556;DHT22;36508;52.512;13.450;2022-07-23T14:33:44;24.90;99.90
50556;DHT22;36508;52.512;13.450;2022-07-23T14:36:10;25.20;99.90
50556;DHT22;36508;52.512;13.450;2022-07-23T14:38:36;25.40;99.90
50556;DHT22;36508;52.512;13.450;2022-07-23T14:41:02;25.30;99.90
50556;DHT22;36508;52.512;13.450;2022-07-23T14:43:27;24.90;99.90
50556;DHT22;36508;52.512;13.450;2022-07-23T14:45:53;24.60;99.90
50556;DHT22;36508;52.512;13.450;2022-07-23T14:48:19;24.70;99.90
50556;DHT22;36508;52.512;13.450;2022-07-23T14:50:44;24.70;99.90
50556;DHT22;36508;52.512;13.450;2022-07-23T14:53:10;24.50;99.90
50556;DHT22;36508;52.512;13.450;2022-07-23T14:55:36;24.60;99.90
50556;DHT22;36508;52.512;13.450;2022-07-23T14:58:01;24.60;99.90
50556;DHT22;36508;52.512;13.450;2022-07-23T15:00:27;24.60;99.90
50556;DHT22;36508;52.512;13.450;2022-07-23T15:02:53;24.90;99.90
50556;DHT22;36508;52.512;13.450;2022-07-23T15:05:19;24.90;99.90
50556;DHT22;36508;52.512;13.450;2022-07-23T15:07:45;24.60;99.90
50556;DHT22;36508;52.512;13.450;2022-07-23T15:10:11;24.30;99.90
50556;DHT22;36508;52.512;13.450;2022-07-23T15:12:37;24.10;99.90
50556;DHT22;36508;52.512;13.450;2022-07-23T15:15:04;24.00;99.90
50556;DHT22;36508;52.512;13.450;2022-07-23T15:17:30;24.00;99.90
50556;DHT22;36508;52.512;13.450;2022-07-23T15:19:55;24.40;99.90
50556;DHT22;36508;52.512;13.450;2022-07-23T15:22:21;24.80;99.90
50556;DHT22;36508;52.512;13.450;2022-07-23T15:24:47;25.10;99.90
50556;DHT22;36508;52.512;13.450;2022-07-23T15:27:13;25.30;99.90
50556;DHT22;36508;52.512;13.450;2022-07-23T15:29:38;25.40;99.90
50556;DHT22;36508;52.512;13.450;2022-07-23T15:32:04;25.70;99.90
50556;DHT22;36508;52.512;13.450;2022-07-23T15:34:30;26.30;99.90
50556;DHT22;36508;52.512;13.450;2022-07-23T15:37:00;26.60;99.90
50556;DHT22;36508;52.512;13.450;2022-07-23T15:39:26;27.40;99.90
50556;DHT22;36508;52.512;13.450;2022-07-23T15:41:52;27.30;99.90
50556;DHT22;36508;52.512;13.450;2022-07-23T15:44:17;27.70;99.90
50556;DHT22;36508;52.512;13.450;2022-07-23T15:46:43;28.30;99.50
50556;DHT22;36508;52.512;13.450;2022-07-23T15:49:09;27.80;99.50
50556;DHT22;36508;52.512;13.450;2022-07-23T15:51:34;28.00;98.30
50556;DHT22;36508;52.512;13.450;2022-07-23T15:54:00;27.40;98.50
50556;DHT22;36508;52.512;13.450;2022-07-23T15:56:26;26.80;99.30
50556;DHT22;36508;52.512;13.450;2022-07-23T15:58:52;26.90;98.50